createdAt,value
2017-11-11T00:02:07.790Z,73.10
2017-11-11T00:04:35.967Z,73.20
2017-11-11T00:07:03.719Z,73.20
2017-11-11T00:09:31.487Z,73.20
2017-11-11T00:11:59.146Z,73.20
2017-11-11T00:14:26.704Z,73.30
2017-11-11T00:16:54.273Z,73.40
2017-11-11T00:19:21.513Z,73.50
2017-11-11T00:21:48.970Z,73.70
2017-11-11T00:24:16.423Z,73.90
2017-11-11T00:26:43.781Z,73.70
2017-11-11T00:29:11.230Z,73.60
2017-11-11T00:31:38.482Z,73.50
2017-11-11T00:34:05.736Z,73.50
2017-11-11T00:36:32.811Z,73.40
2017-11-11T00:38:59.585Z,73.40
2017-11-11T00:41:27.083Z,73.40
2017-11-11T00:43:53.868Z,73.20
2017-11-11T00:46:20.625Z,73.20
2017-11-11T00:48:47.474Z,73.40
2017-11-11T00:51:14.445Z,73.50
2017-11-11T00:53:41.176Z,73.50
2017-11-11T00:56:08.693Z,73.10
2017-11-11T00:58:35.444Z,73.10
2017-11-11T01:01:02.195Z,73.30
2017-11-11T01:03:28.908Z,73.20
2017-11-11T01:05:55.691Z,73.40
2017-11-11T01:08:22.436Z,73.40
2017-11-11T01:10:49.155Z,73.30
2017-11-11T01:13:16.650Z,73.50
2017-11-11T01:15:43.383Z,73.40
2017-11-11T01:18:10.120Z,73.60
2017-11-11T01:20:36.852Z,73.70
2017-11-11T01:23:03.656Z,73.70
2017-11-11T01:25:31.153Z,74.10
2017-11-11T01:27:57.900Z,74.00
2017-11-11T01:30:24.631Z,74.00
2017-11-11T01:32:51.387Z,74.00
2017-11-11T01:35:18.287Z,74.10
2017-11-11T01:37:45.846Z,73.90
2017-11-11T01:40:13.518Z,73.80
2017-11-11T01:42:41.027Z,73.80
2017-11-11T01:45:07.768Z,73.80
2017-11-11T01:47:35.999Z,73.80
2017-11-11T01:50:02.826Z,73.80
2017-11-11T01:52:29.524Z,74.00
2017-11-11T01:54:56.333Z,74.00
2017-11-11T01:57:23.044Z,74.20
2017-11-11T01:59:49.786Z,74.20
2017-11-11T02:02:16.695Z,74.00
2017-11-11T02:04:43.439Z,73.60
2017-11-11T02:07:10.940Z,73.30
2017-11-11T02:09:37.699Z,73.20
2017-11-11T02:12:04.444Z,73.20
2017-11-11T02:14:31.203Z,73.10
2017-11-11T02:16:57.938Z,73.20
2017-11-11T02:19:24.673Z,73.20
2017-11-11T02:21:51.396Z,73.30
2017-11-11T02:24:18.135Z,73.20
2017-11-11T02:26:44.872Z,73.00
2017-11-11T02:29:11.619Z,73.00
2017-11-11T02:31:38.392Z,72.90
2017-11-11T02:34:05.900Z,72.70
2017-11-11T02:36:32.655Z,72.60
2017-11-11T02:38:59.399Z,72.70
2017-11-11T02:41:26.139Z,72.50
2017-11-11T02:43:52.911Z,72.40
2017-11-11T02:46:20.437Z,72.30
2017-11-11T02:48:47.179Z,72.30
2017-11-11T02:51:13.908Z,72.30
2017-11-11T02:53:40.656Z,72.30
2017-11-11T02:56:07.392Z,72.20
2017-11-11T02:58:34.149Z,72.10
2017-11-11T03:01:00.887Z,72.10
2017-11-11T03:03:27.592Z,72.30
2017-11-11T03:05:54.491Z,72.20
2017-11-11T03:08:21.207Z,72.40
2017-11-11T03:10:48.720Z,72.50
2017-11-11T03:13:15.460Z,72.30
2017-11-11T03:15:42.222Z,72.40
2017-11-11T03:18:08.951Z,72.40
2017-11-11T03:20:35.693Z,72.40
2017-11-11T03:23:02.432Z,72.10
2017-11-11T03:25:29.156Z,72.00
2017-11-11T03:27:55.944Z,72.00
2017-11-11T03:30:23.423Z,72.80
2017-11-11T03:32:50.170Z,72.00
2017-11-11T03:35:16.893Z,72.00
2017-11-11T03:37:44.419Z,72.00
2017-11-11T03:40:11.144Z,72.00
2017-11-11T03:42:37.887Z,72.10
2017-11-11T03:45:04.643Z,72.30
2017-11-11T03:47:31.349Z,72.20
2017-11-11T03:49:58.087Z,72.20
2017-11-11T03:52:24.818Z,72.30
2017-11-11T03:54:51.637Z,72.00
2017-11-11T03:57:19.184Z,72.00
2017-11-11T03:59:45.916Z,71.80
2017-11-11T04:02:13.414Z,71.80
2017-11-11T04:04:40.152Z,71.70
2017-11-11T04:07:06.877Z,71.80
2017-11-11T04:09:33.604Z,71.90
2017-11-11T04:12:00.352Z,71.90
2017-11-11T04:14:27.076Z,72.30
2017-11-11T04:16:53.830Z,72.40
2017-11-11T04:19:20.548Z,72.20
2017-11-11T04:21:47.304Z,72.20
2017-11-11T04:24:14.029Z,72.40
2017-11-11T04:26:40.755Z,72.50
2017-11-11T04:29:08.263Z,72.50
2017-11-11T04:31:35.001Z,72.40
2017-11-11T04:34:01.751Z,72.50
2017-11-11T04:36:28.471Z,72.60
2017-11-11T04:38:55.219Z,72.80
2017-11-11T04:41:21.968Z,72.50
2017-11-11T04:43:48.686Z,72.50
2017-11-11T04:46:15.408Z,72.10
2017-11-11T04:48:42.144Z,71.70
2017-11-11T04:51:08.940Z,71.30
2017-11-11T04:53:35.663Z,71.30
2017-11-11T04:56:02.465Z,71.20
2017-11-11T04:58:29.241Z,70.90
2017-11-11T05:00:55.978Z,70.90
2017-11-11T05:03:22.731Z,71.00
2017-11-11T05:05:49.483Z,70.90
2017-11-11T05:08:16.216Z,71.00
2017-11-11T05:10:42.935Z,71.10
2017-11-11T05:13:09.687Z,71.70
2017-11-11T05:15:36.416Z,70.90
2017-11-11T05:18:03.187Z,70.60
2017-11-11T05:20:30.839Z,70.90
2017-11-11T05:22:58.348Z,71.00
2017-11-11T05:25:25.080Z,71.00
2017-11-11T05:27:51.829Z,71.00
2017-11-11T05:30:18.576Z,71.20
2017-11-11T05:32:45.336Z,71.50
2017-11-11T05:35:12.119Z,72.10
2017-11-11T05:37:39.718Z,72.80
2017-11-11T05:40:06.487Z,72.80
2017-11-11T05:42:33.543Z,72.30
2017-11-11T05:45:01.040Z,72.00
2017-11-11T05:47:27.765Z,72.00
2017-11-11T05:49:54.513Z,71.80
2017-11-11T05:52:21.248Z,71.70
2017-11-11T05:54:47.996Z,71.60
2017-11-11T05:57:14.713Z,71.10
2017-11-11T05:59:41.436Z,71.20
2017-11-11T06:02:08.939Z,71.20
2017-11-11T06:04:35.688Z,71.20
2017-11-11T06:07:02.420Z,71.50
2017-11-11T06:09:30.956Z,71.90
2017-11-11T06:11:58.444Z,72.40
2017-11-11T06:14:25.199Z,72.40
2017-11-11T06:16:51.943Z,72.80
2017-11-11T06:19:18.667Z,73.00
2017-11-11T06:21:45.393Z,73.20
2017-11-11T06:24:12.160Z,73.40
2017-11-11T06:26:38.939Z,73.40
2017-11-11T06:29:06.438Z,73.50
2017-11-11T06:31:33.172Z,73.40
2017-11-11T06:33:59.912Z,73.30
2017-11-11T06:36:26.652Z,73.20
2017-11-11T06:38:53.409Z,73.20
2017-11-11T06:41:20.161Z,73.90
2017-11-11T06:43:46.915Z,73.10
2017-11-11T06:46:13.655Z,72.60
2017-11-11T06:48:41.164Z,72.20
2017-11-11T06:51:08.471Z,72.10
2017-11-11T06:53:35.968Z,72.00
2017-11-11T06:56:02.828Z,72.00
2017-11-11T06:58:29.583Z,71.30
2017-11-11T07:00:57.068Z,71.20
2017-11-11T07:03:24.608Z,70.50
2017-11-11T07:05:51.325Z,70.50
2017-11-11T07:08:18.062Z,70.40
2017-11-11T07:10:44.799Z,70.60
2017-11-11T07:13:11.595Z,70.40
2017-11-11T07:15:38.316Z,70.30
2017-11-11T07:18:05.813Z,70.10
2017-11-11T07:20:32.584Z,70.00
2017-11-11T07:22:59.309Z,69.70
2017-11-11T07:25:26.052Z,69.90
2017-11-11T07:27:52.796Z,69.80
2017-11-11T07:30:19.588Z,69.50
2017-11-11T07:32:46.335Z,69.50
2017-11-11T07:35:13.058Z,69.10
2017-11-11T07:37:40.571Z,68.80
2017-11-11T07:40:07.321Z,68.70
2017-11-11T07:42:34.060Z,68.40
2017-11-11T07:45:00.788Z,68.70
2017-11-11T07:47:27.551Z,68.40
2017-11-11T07:49:55.065Z,68.30
2017-11-11T07:52:21.840Z,68.20
2017-11-11T07:54:48.573Z,67.60
2017-11-11T07:57:15.287Z,68.10
2017-11-11T07:59:42.028Z,68.30
2017-11-11T08:02:08.787Z,68.10
2017-11-11T08:04:35.513Z,67.60
2017-11-11T08:07:02.274Z,67.90
2017-11-11T08:09:29.572Z,67.50
2017-11-11T08:11:57.073Z,67.60
2017-11-11T08:14:23.807Z,67.50
2017-11-11T08:16:50.574Z,67.60
2017-11-11T08:19:17.296Z,67.30
2017-11-11T08:21:44.519Z,67.80
2017-11-11T08:24:11.254Z,67.40
2017-11-11T08:26:38.005Z,67.10
2017-11-11T08:29:04.749Z,66.90
2017-11-11T08:31:31.533Z,67.40
2017-11-11T08:33:58.585Z,67.40
2017-11-11T08:36:25.321Z,67.40
2017-11-11T08:38:52.069Z,67.60
2017-11-11T08:41:18.788Z,68.20
2017-11-11T08:43:45.559Z,68.60
2017-11-11T08:46:12.314Z,68.30
2017-11-11T08:48:39.041Z,68.90
2017-11-11T08:51:05.769Z,69.70
2017-11-11T08:53:32.514Z,69.30
2017-11-11T08:55:59.236Z,69.60
2017-11-11T08:58:26.027Z,70.10
2017-11-11T09:00:52.767Z,70.10
2017-11-11T09:03:19.478Z,70.50
2017-11-11T09:05:46.229Z,71.40
2017-11-11T09:08:12.963Z,70.80
2017-11-11T09:10:39.712Z,71.20
2017-11-11T09:13:06.466Z,71.40
2017-11-11T09:15:33.205Z,71.80
2017-11-11T09:17:59.937Z,71.80
2017-11-11T09:20:26.672Z,71.60
2017-11-11T09:22:53.412Z,71.70
2017-11-11T09:25:20.149Z,71.40
2017-11-11T09:27:46.898Z,72.10
2017-11-11T09:30:13.628Z,72.10
2017-11-11T09:32:40.384Z,72.60
2017-11-11T09:35:07.213Z,72.60
2017-11-11T09:37:33.912Z,72.10
2017-11-11T09:40:00.702Z,72.00
2017-11-11T09:42:27.453Z,72.30
2017-11-11T09:44:54.247Z,72.90
2017-11-11T09:47:20.977Z,73.20
2017-11-11T09:49:47.791Z,72.80
2017-11-11T09:52:14.532Z,73.40
2017-11-11T09:54:41.288Z,74.60
2017-11-11T09:57:08.037Z,74.10
2017-11-11T09:59:34.868Z,73.70
2017-11-11T10:02:02.102Z,74.10
2017-11-11T10:04:29.394Z,74.70
2017-11-11T10:06:57.634Z,75.00
2017-11-11T10:09:24.843Z,75.00
2017-11-11T10:11:53.052Z,74.80
2017-11-11T10:14:20.923Z,74.70
2017-11-11T10:16:48.628Z,75.40
2017-11-11T10:19:17.062Z,75.40
2017-11-11T10:21:44.613Z,75.30
2017-11-11T10:24:12.385Z,75.20
2017-11-11T10:26:40.142Z,74.90
2017-11-11T10:29:07.798Z,75.30
2017-11-11T10:31:35.356Z,75.50
2017-11-11T10:34:03.123Z,75.60
2017-11-11T10:36:30.653Z,75.40
2017-11-11T10:38:58.341Z,76.00
2017-11-11T10:41:26.104Z,75.90
2017-11-11T10:43:53.873Z,75.80
2017-11-11T10:46:21.525Z,75.90
2017-11-11T10:48:49.068Z,75.30
2017-11-11T10:51:16.842Z,75.60
2017-11-11T10:53:44.610Z,75.80
2017-11-11T10:56:12.482Z,75.70
2017-11-11T10:58:40.132Z,75.90
2017-11-11T11:01:07.899Z,75.80
2017-11-11T11:03:35.658Z,75.80
2017-11-11T11:06:03.298Z,76.50
2017-11-11T11:08:30.776Z,76.20
2017-11-11T11:10:58.435Z,76.70
2017-11-11T11:13:26.096Z,75.90
2017-11-11T11:15:53.765Z,76.20
2017-11-11T11:18:21.424Z,76.50
2017-11-11T11:20:49.077Z,76.20
2017-11-11T11:23:16.828Z,76.50
2017-11-11T11:25:44.499Z,76.70
2017-11-11T11:28:13.024Z,76.50
2017-11-11T11:30:40.639Z,77.10
2017-11-11T11:33:08.413Z,76.80
2017-11-11T11:35:35.960Z,76.00
2017-11-11T11:38:03.724Z,76.00
2017-11-11T11:40:31.485Z,75.70
2017-11-11T11:42:59.454Z,75.40
2017-11-11T11:45:27.112Z,75.40
2017-11-11T11:47:54.774Z,75.90
2017-11-11T11:50:22.537Z,75.90
2017-11-11T11:52:50.300Z,76.40
2017-11-11T11:55:18.063Z,76.40
2017-11-11T11:57:45.825Z,76.60
2017-11-11T12:00:13.587Z,76.80
2017-11-11T12:02:41.145Z,77.10
2017-11-11T12:05:08.909Z,77.80
2017-11-11T12:07:36.552Z,77.80
2017-11-11T12:10:04.237Z,77.60
2017-11-11T12:12:31.874Z,77.30
2017-11-11T12:14:59.449Z,77.60
2017-11-11T12:17:27.119Z,77.70
2017-11-11T12:19:54.987Z,77.30
2017-11-11T12:22:22.735Z,76.80
2017-11-11T12:24:50.602Z,77.20
2017-11-11T12:27:18.476Z,77.40
2017-11-11T12:29:46.228Z,76.90
2017-11-11T12:32:13.994Z,76.80
2017-11-11T12:34:41.548Z,76.90
2017-11-11T12:37:09.224Z,76.90
2017-11-11T12:39:37.282Z,77.10
2017-11-11T12:42:04.837Z,77.00
2017-11-11T12:44:33.017Z,76.90
2017-11-11T12:47:00.774Z,76.80
2017-11-11T12:49:28.654Z,77.10
2017-11-11T12:51:56.402Z,77.50
2017-11-11T12:54:23.959Z,77.50
2017-11-11T12:56:51.449Z,77.30
2017-11-11T12:59:19.791Z,77.90
2017-11-11T13:01:47.555Z,77.90
2017-11-11T13:04:15.325Z,77.80
2017-11-11T13:06:43.083Z,77.50
2017-11-11T13:09:10.739Z,77.30
2017-11-11T13:11:38.480Z,77.30
2017-11-11T13:14:06.060Z,77.70
2017-11-11T13:16:33.928Z,77.40
2017-11-11T13:19:01.792Z,77.40
2017-11-11T13:21:29.349Z,77.40
2017-11-11T13:23:57.115Z,76.40
2017-11-11T13:26:25.197Z,77.10
2017-11-11T13:28:52.850Z,76.70
2017-11-11T13:31:20.593Z,75.50
2017-11-11T13:33:48.879Z,75.40
2017-11-11T13:36:16.540Z,75.00
2017-11-11T13:38:44.312Z,75.40
2017-11-11T13:41:11.964Z,75.40
2017-11-11T13:43:39.625Z,75.10
2017-11-11T13:46:07.300Z,75.30
2017-11-11T13:48:35.662Z,73.10
2017-11-11T13:51:03.425Z,73.10
2017-11-11T13:53:30.887Z,72.80
2017-11-11T13:55:58.650Z,73.70
2017-11-11T13:58:27.116Z,72.60
2017-11-11T14:00:54.785Z,72.70
2017-11-11T14:03:22.350Z,72.90
2017-11-11T14:05:50.011Z,72.90
2017-11-11T14:08:17.773Z,72.60
2017-11-11T14:10:45.424Z,72.60
2017-11-11T14:13:13.094Z,72.50
2017-11-11T14:15:40.848Z,72.90
2017-11-11T14:18:08.405Z,73.10
2017-11-11T14:20:35.865Z,73.90
2017-11-11T14:23:03.444Z,72.90
2017-11-11T14:25:31.189Z,73.00
2017-11-11T14:27:58.945Z,73.00
2017-11-11T14:30:26.919Z,73.40
2017-11-11T14:32:54.687Z,72.40
2017-11-11T14:35:22.443Z,72.50
2017-11-11T14:37:49.981Z,72.60
2017-11-11T14:40:17.658Z,73.10
2017-11-11T14:42:46.135Z,73.20
2017-11-11T14:45:13.804Z,73.10
2017-11-11T14:47:41.561Z,73.70
2017-11-11T14:50:09.526Z,73.40
2017-11-11T14:52:37.194Z,73.10
2017-11-11T14:55:04.851Z,73.40
2017-11-11T14:57:32.626Z,73.70
2017-11-11T15:00:00.273Z,73.50
2017-11-11T15:02:28.152Z,73.40
2017-11-11T15:04:55.806Z,73.20
2017-11-11T15:07:23.630Z,73.60
2017-11-11T15:09:51.324Z,73.70
2017-11-11T15:12:19.186Z,74.20
2017-11-11T15:14:46.848Z,74.60
2017-11-11T15:17:15.738Z,75.00
2017-11-11T15:19:43.607Z,75.30
2017-11-11T15:22:11.671Z,75.50
2017-11-11T15:24:39.525Z,75.60
2017-11-11T15:27:07.210Z,75.70
2017-11-11T15:29:34.893Z,75.60
2017-11-11T15:32:02.628Z,75.60
2017-11-11T15:34:30.288Z,75.90
2017-11-11T15:36:58.054Z,75.80
2017-11-11T15:39:25.707Z,76.30
2017-11-11T15:41:54.178Z,75.30
2017-11-11T15:44:21.850Z,75.30
2017-11-11T15:46:50.116Z,75.40
2017-11-11T15:49:17.677Z,75.60
2017-11-11T15:51:45.440Z,75.80
2017-11-11T15:54:13.201Z,75.60
2017-11-11T15:56:41.067Z,75.70
2017-11-11T15:59:08.830Z,75.40
2017-11-11T16:01:36.702Z,75.40
2017-11-11T16:04:04.256Z,75.70
2017-11-11T16:06:31.885Z,75.60
2017-11-11T16:08:59.576Z,75.60
2017-11-11T16:11:27.447Z,75.50
2017-11-11T16:13:55.204Z,75.40
2017-11-11T16:16:22.884Z,75.50
2017-11-11T16:18:51.252Z,75.50
2017-11-11T16:21:18.902Z,75.50
2017-11-11T16:23:46.569Z,75.80
2017-11-11T16:26:14.326Z,75.70
2017-11-11T16:28:43.106Z,76.10
2017-11-11T16:31:10.771Z,76.10
2017-11-11T16:33:38.635Z,75.70
2017-11-11T16:36:06.387Z,75.50
2017-11-11T16:38:33.956Z,75.40
2017-11-11T16:41:01.825Z,75.30
2017-11-11T16:43:29.600Z,75.40
2017-11-11T16:45:57.345Z,75.10
2017-11-11T16:48:25.211Z,75.40
2017-11-11T16:50:53.184Z,75.60
2017-11-11T16:53:20.635Z,75.90
2017-11-11T16:55:48.602Z,75.90
2017-11-11T16:58:16.341Z,76.40
2017-11-11T17:00:44.131Z,76.00
2017-11-11T17:03:11.891Z,76.10
2017-11-11T17:05:39.571Z,76.40
2017-11-11T17:08:08.148Z,76.50
2017-11-11T17:10:37.135Z,76.50
2017-11-11T17:13:04.991Z,75.50
2017-11-11T17:15:32.762Z,75.40
2017-11-11T17:18:00.601Z,75.40
2017-11-11T17:20:28.278Z,75.50
2017-11-11T17:22:56.960Z,76.20
2017-11-11T17:25:24.727Z,76.20
2017-11-11T17:27:52.497Z,76.30
2017-11-11T17:30:20.889Z,76.20
2017-11-11T17:32:48.733Z,76.10
2017-11-11T17:35:16.602Z,76.50
2017-11-11T17:37:44.367Z,76.80
2017-11-11T17:40:12.123Z,76.70
2017-11-11T17:42:39.883Z,77.10
2017-11-11T17:45:07.749Z,77.20
2017-11-11T17:47:35.316Z,77.30
2017-11-11T17:50:03.000Z,77.10
2017-11-11T17:52:30.730Z,77.00
2017-11-11T17:54:57.617Z,76.80
2017-11-11T17:57:24.378Z,76.80
2017-11-11T17:59:51.886Z,77.10
2017-11-11T18:02:18.650Z,77.10
2017-11-11T18:04:45.450Z,77.20
2017-11-11T18:07:12.240Z,77.50
2017-11-11T18:09:38.971Z,77.60
2017-11-11T18:12:05.717Z,77.70
2017-11-11T18:14:33.257Z,78.70
2017-11-11T18:17:00.009Z,77.80
2017-11-11T18:19:26.764Z,78.60
2017-11-11T18:21:53.495Z,78.10
2017-11-11T18:24:20.235Z,78.50
2017-11-11T18:26:47.105Z,78.70
2017-11-11T18:29:14.652Z,79.10
2017-11-11T18:31:41.403Z,79.00
2017-11-11T18:34:08.888Z,80.00
2017-11-11T18:36:35.673Z,79.30
2017-11-11T18:39:02.389Z,79.50
2017-11-11T18:41:29.126Z,79.80
2017-11-11T18:43:55.868Z,79.50
2017-11-11T18:46:22.635Z,79.80
2017-11-11T18:48:49.377Z,80.00
2017-11-11T18:51:16.136Z,80.30
2017-11-11T18:53:42.883Z,80.30
2017-11-11T18:56:10.408Z,80.60
2017-11-11T18:58:37.147Z,80.60
2017-11-11T19:01:03.900Z,80.80
2017-11-11T19:03:31.399Z,81.80
2017-11-11T19:05:58.137Z,81.10
2017-11-11T19:08:24.899Z,81.20
2017-11-11T19:10:52.536Z,81.40
2017-11-11T19:13:19.295Z,81.40
2017-11-11T19:15:46.062Z,81.40
2017-11-11T19:18:12.816Z,81.40
2017-11-11T19:20:39.537Z,81.40
2017-11-11T19:23:06.268Z,81.40
2017-11-11T19:25:33.017Z,81.60
2017-11-11T19:27:59.758Z,81.70
2017-11-11T19:30:26.518Z,81.80
2017-11-11T19:32:54.045Z,81.90
2017-11-11T19:35:20.782Z,81.90
2017-11-11T19:37:47.657Z,81.80
2017-11-11T19:40:15.291Z,81.90
2017-11-11T19:42:42.806Z,81.80
2017-11-11T19:45:09.570Z,81.80
2017-11-11T19:47:36.345Z,81.90
2017-11-11T19:50:03.851Z,82.60
2017-11-11T19:52:30.584Z,81.90
2017-11-11T19:54:57.347Z,82.00
2017-11-11T19:57:24.097Z,81.80
2017-11-11T19:59:51.625Z,81.40
2017-11-11T20:02:18.377Z,81.40
2017-11-11T20:04:45.275Z,81.30
2017-11-11T20:07:12.041Z,81.20
2017-11-11T20:09:38.789Z,81.20
2017-11-11T20:12:05.551Z,81.10
2017-11-11T20:14:32.300Z,81.20
2017-11-11T20:16:59.053Z,81.10
2017-11-11T20:19:26.562Z,81.10
2017-11-11T20:21:53.335Z,81.00
2017-11-11T20:24:20.074Z,81.00
2017-11-11T20:26:47.603Z,81.20
2017-11-11T20:29:14.362Z,81.00
2017-11-11T20:31:41.107Z,81.00
2017-11-11T20:34:07.897Z,80.90
2017-11-11T20:36:34.656Z,80.90
2017-11-11T20:39:01.585Z,80.90
2017-11-11T20:41:28.365Z,80.80
2017-11-11T20:43:55.119Z,80.90
2017-11-11T20:46:21.863Z,80.90
2017-11-11T20:48:49.372Z,81.00
2017-11-11T20:51:16.145Z,80.90
2017-11-11T20:53:42.884Z,81.00
2017-11-11T20:56:09.649Z,80.80
2017-11-11T20:58:37.167Z,80.90
2017-11-11T21:01:03.940Z,81.60
2017-11-11T21:03:30.734Z,80.90
2017-11-11T21:05:57.504Z,80.50
2017-11-11T21:08:25.076Z,80.60
2017-11-11T21:10:51.980Z,80.70
2017-11-11T21:13:18.785Z,81.00
2017-11-11T21:15:46.259Z,80.60
2017-11-11T21:18:13.035Z,81.40
2017-11-11T21:20:39.811Z,80.60
2017-11-11T21:23:07.293Z,80.70
2017-11-11T21:25:36.207Z,81.60
2017-11-11T21:28:02.970Z,80.70
2017-11-11T21:30:30.480Z,81.00
2017-11-11T21:32:57.218Z,80.90
2017-11-11T21:35:23.976Z,81.10
2017-11-11T21:37:50.732Z,81.00
2017-11-11T21:40:17.510Z,81.10
2017-11-11T21:42:44.272Z,81.10
2017-11-11T21:45:11.065Z,81.20
2017-11-11T21:47:38.749Z,81.00
2017-11-11T21:50:05.504Z,80.90
2017-11-11T21:52:32.246Z,81.00
2017-11-11T21:54:58.986Z,80.80
2017-11-11T21:57:25.729Z,80.90
2017-11-11T21:59:52.480Z,80.80
2017-11-11T22:02:19.286Z,80.90
2017-11-11T22:04:46.941Z,81.10
2017-11-11T22:07:14.474Z,81.40
2017-11-11T22:09:41.204Z,81.20
2017-11-11T22:12:07.969Z,81.20
2017-11-11T22:14:35.481Z,81.20
2017-11-11T22:17:02.242Z,81.10
2017-11-11T22:19:28.986Z,81.00
2017-11-11T22:21:55.749Z,81.10
2017-11-11T22:24:22.494Z,81.40
2017-11-11T22:26:49.269Z,81.50
2017-11-11T22:29:16.003Z,81.60
2017-11-11T22:31:42.750Z,81.80
2017-11-11T22:34:09.518Z,81.90
2017-11-11T22:36:36.272Z,81.80
2017-11-11T22:39:03.849Z,81.70
2017-11-11T22:41:31.344Z,81.70
2017-11-11T22:43:58.124Z,81.50
2017-11-11T22:46:24.859Z,81.60
2017-11-11T22:48:52.917Z,81.50
2017-11-11T22:51:20.425Z,81.40
2017-11-11T22:53:47.163Z,81.40
2017-11-11T22:56:13.949Z,81.40
2017-11-11T22:58:40.672Z,81.20
2017-11-11T23:01:07.425Z,81.10
2017-11-11T23:03:34.188Z,81.00
2017-11-11T23:06:01.679Z,81.40
2017-11-11T23:08:28.457Z,80.80
2017-11-11T23:10:55.189Z,81.10
2017-11-11T23:13:22.046Z,80.90
2017-11-11T23:15:48.786Z,81.00
2017-11-11T23:18:15.509Z,81.10
2017-11-11T23:20:42.245Z,81.20
2017-11-11T23:23:09.070Z,81.40
2017-11-11T23:25:35.825Z,81.50
2017-11-11T23:28:02.565Z,81.70
2017-11-11T23:30:29.284Z,81.70
2017-11-11T23:32:56.242Z,81.50
2017-11-11T23:35:22.980Z,81.50
2017-11-11T23:37:49.717Z,81.40
2017-11-11T23:40:16.470Z,81.40
2017-11-11T23:42:43.254Z,81.40
2017-11-11T23:45:10.569Z,81.20
2017-11-11T23:47:37.303Z,81.10
2017-11-11T23:50:04.064Z,80.90
2017-11-11T23:52:31.566Z,80.70
2017-11-11T23:54:58.308Z,80.50
2017-11-11T23:57:25.062Z,80.50
2017-11-11T23:59:51.801Z,80.60
